Time;durP1;ratioP1;P1;durP2;ratioP2;P2;SDS_P1;SDS_P2;PMS_P1;PMS_P2;Temp;Humidity;BMP_temperature;BMP_pressure;BME280_temperature;BME280_humidity;BME280_pressure;Samples;Min_cycle;Max_cycle;Signal;HPM_P1;HPM_P2
2022/09/06 00:00:57;;;;;;;29.45;13.13;;;20.00;90.90;;;;;;4956495;29;20043;-76
2022/09/06 00:03:23;;;;;;;24.30;13.37;;;20.00;90.90;;;;;;4956794;29;20468;-70
2022/09/06 00:05:50;;;;;;;23.40;12.48;;;20.00;91.30;;;;;;4958727;28;20054;-70
2022/09/06 00:08:16;;;;;;;22.55;12.95;;;20.00;91.70;;;;;;4944026;29;20046;-71
2022/09/06 00:10:42;;;;;;;21.52;12.70;;;19.90;91.60;;;;;;4943496;29;20039;-70
2022/09/06 00:13:10;;;;;;;23.77;12.87;;;19.80;91.60;;;;;;4959631;29;20110;-71
2022/09/06 00:15:36;;;;;;;23.30;13.18;;;19.80;91.50;;;;;;4926792;29;20318;-70
2022/09/06 00:18:04;;;;;;;27.70;13.30;;;19.80;91.60;;;;;;4959779;29;20380;-69
2022/09/06 00:20:31;;;;;;;23.70;13.48;;;19.70;92.10;;;;;;4958232;28;20472;-70
2022/09/06 00:23:01;;;;;;;24.77;13.45;;;19.70;92.50;;;;;;4959426;29;20039;-71
2022/09/06 00:25:29;;;;;;;24.95;13.63;;;19.60;92.30;;;;;;4960041;29;20043;-71
2022/09/06 00:28:00;;;;;;;27.63;13.95;;;19.60;92.20;;;;;;4960305;29;20093;-70
2022/09/06 00:30:27;;;;;;;27.33;13.73;;;19.60;92.20;;;;;;4959570;29;20426;-70
2022/09/06 00:32:54;;;;;;;23.35;14.00;;;19.50;92.50;;;;;;4958565;29;20079;-71
2022/09/06 00:35:20;;;;;;;;;;;19.50;92.40;;;;;;4958783;28;20352;-71
2022/09/06 00:37:46;;;;;;;28.77;13.60;;;19.50;93.20;;;;;;4942487;29;20076;-71
2022/09/06 00:40:13;;;;;;;24.33;13.97;;;19.50;92.60;;;;;;4926284;29;20090;-70
2022/09/06 00:42:38;;;;;;;22.52;13.60;;;19.40;92.60;;;;;;4941365;29;20042;-72
2022/09/06 00:45:06;;;;;;;20.37;12.73;;;19.40;92.50;;;;;;4940998;29;20051;-72
2022/09/06 00:47:34;;;;;;;25.10;14.60;;;19.40;92.60;;;;;;4925073;29;20047;-70
2022/09/06 00:50:01;;;;;;;26.85;13.43;;;19.40;93.10;;;;;;4942723;29;20078;-72
2022/09/06 00:52:27;;;;;;;23.23;14.00;;;19.40;92.90;;;;;;4925013;29;20086;-70
2022/09/06 00:54:54;;;;;;;26.17;13.05;;;19.40;92.90;;;;;;4958143;29;20074;-70
2022/09/06 00:57:20;;;;;;;21.70;13.93;;;19.40;92.80;;;;;;4957686;29;20057;-75
2022/09/06 00:59:46;;;;;;;25.70;14.13;;;19.50;92.80;;;;;;4925785;29;20043;-71
2022/09/06 01:02:12;;;;;;;;;;;19.50;92.70;;;;;;4941510;29;20440;-71
2022/09/06 01:04:41;;;;;;;23.52;13.63;;;19.50;93.00;;;;;;4958278;29;19980;-70
2022/09/06 01:07:15;;;;;;;25.85;13.80;;;19.50;93.10;;;;;;4958266;28;20035;-69
2022/09/06 01:10:14;;;;;;;22.35;14.07;;;19.50;93.20;;;;;;4958352;29;21904;-74
2022/09/06 01:12:57;;;;;;;23.30;13.45;;;19.40;93.80;;;;;;4958108;29;20154;-71
2022/09/06 01:15:38;;;;;;;27.15;13.43;;;19.40;93.20;;;;;;4958708;29;20048;-70
2022/09/06 01:18:35;;;;;;;24.15;14.00;;;19.40;93.20;;;;;;4940596;29;20047;-71
2022/09/06 01:21:27;;;;;;;26.63;13.68;;;19.50;93.40;;;;;;4958219;29;20127;-71
2022/09/06 01:24:03;;;;;;;24.50;14.05;;;19.40;93.60;;;;;;4940762;29;20066;-72
2022/09/06 01:26:46;;;;;;;29.25;14.85;;;19.40;93.40;;;;;;4957121;29;20487;-70
2022/09/06 01:29:25;;;;;;;23.67;14.10;;;19.40;93.30;;;;;;4925255;29;20055;-70
2022/09/06 01:32:03;;;;;;;26.92;14.55;;;19.40;93.10;;;;;;4958031;29;20407;-70
2022/09/06 01:34:41;;;;;;;21.88;13.77;;;19.40;93.10;;;;;;4958228;29;20054;-70
2022/09/06 01:37:16;;;;;;;25.48;13.98;;;19.40;93.10;;;;;;4958038;29;20047;-70
2022/09/06 01:39:42;;;;;;;27.98;13.93;;;19.40;93.10;;;;;;4940448;29;20043;-70
2022/09/06 01:42:18;;;;;;;22.37;13.67;;;19.40;93.00;;;;;;4956479;29;20490;-70
2022/09/06 01:44:58;;;;;;;27.23;14.43;;;19.40;93.30;;;;;;4956639;29;20122;-71
2022/09/06 01:47:48;;;;;;;27.50;14.27;;;19.40;93.30;;;;;;4956414;29;20055;-71
2022/09/06 01:50:41;;;;;;;24.50;14.07;;;19.40;93.30;;;;;;4957147;29;20372;-70
2022/09/06 01:53:34;;;;;;;24.80;14.25;;;19.40;93.20;;;;;;4939079;29;20098;-70
2022/09/06 01:56:21;;;;;;;28.95;14.65;;;19.40;93.30;;;;;;4956178;29;20050;-69
2022/09/06 01:59:20;;;;;;;28.10;14.20;;;19.40;93.60;;;;;;4956907;28;20122;-71
2022/09/06 02:02:03;;;;;;;25.95;15.18;;;19.30;93.70;;;;;;4957660;29;20043;-70
2022/09/06 02:04:39;;;;;;;37.63;15.95;;;19.30;93.60;;;;;;4957424;29;20040;-71
2022/09/06 02:07:26;;;;;;;28.90;15.60;;;19.30;93.40;;;;;;4956679;29;20143;-69
2022/09/06 02:10:12;;;;;;;29.70;16.48;;;19.30;93.40;;;;;;4939180;29;20103;-72
2022/09/06 02:12:42;;;;;;;30.23;15.63;;;19.30;93.30;;;;;;4939796;29;20055;-71
2022/09/06 02:15:25;;;;;;;28.05;16.30;;;19.30;93.20;;;;;;4939592;29;20093;-72
2022/09/06 02:18:02;;;;;;;27.92;15.73;;;19.30;93.20;;;;;;4956585;29;20050;-80
2022/09/06 02:20:30;;;;;;;;;;;19.30;93.20;;;;;;4939682;29;20384;-74
2022/09/06 02:23:00;;;;;;;26.38;15.05;;;19.20;93.40;;;;;;4939107;29;19965;-70
2022/09/06 02:25:35;;;;;;;29.95;15.43;;;19.20;93.20;;;;;;4956058;29;20043;-70
2022/09/06 02:28:01;;;;;;;28.30;15.60;;;19.20;93.20;;;;;;4938547;29;20055;-71
2022/09/06 02:30:28;;;;;;;27.73;14.77;;;19.20;93.20;;;;;;4955249;29;20050;-71
2022/09/06 02:33:01;;;;;;;30.48;15.48;;;19.20;93.20;;;;;;4938468;29;20106;-74
2022/09/06 02:35:27;;;;;;;27.30;15.57;;;19.20;93.20;;;;;;4939180;29;20055;-72
2022/09/06 02:37:55;;;;;;;30.47;16.10;;;19.20;93.10;;;;;;4938506;29;20059;-77
2022/09/06 02:40:21;;;;;;;29.15;15.43;;;19.30;93.10;;;;;;4955751;29;20389;-69
2022/09/06 02:42:47;;;;;;;34.25;16.15;;;19.20;93.20;;;;;;4939176;29;20058;-72
2022/09/06 02:45:13;;;;;;;29.73;15.90;;;19.20;93.20;;;;;;4937881;29;20448;-71
2022/09/06 02:47:38;;;;;;;27.97;15.77;;;19.20;93.20;;;;;;4938572;29;20098;-71
2022/09/06 02:50:05;;;;;;;30.07;16.27;;;19.20;93.30;;;;;;4955385;29;20043;-71
2022/09/06 02:52:31;;;;;;;33.10;17.25;;;19.20;93.30;;;;;;4955283;29;20440;-73
2022/09/06 02:54:56;;;;;;;30.90;17.47;;;19.20;93.30;;;;;;4938157;29;20137;-72
2022/09/06 02:57:22;;;;;;;35.23;17.30;;;19.10;93.30;;;;;;4938767;29;20101;-72
2022/09/06 02:59:48;;;;;;;29.20;16.93;;;19.10;93.50;;;;;;4955200;29;20087;-72
2022/09/06 03:02:14;;;;;;;37.40;16.87;;;19.10;93.50;;;;;;4955569;29;20050;-72
2022/09/06 03:04:40;;;;;;;28.42;16.45;;;19.00;93.80;;;;;;4954671;28;20499;-72
2022/09/06 03:07:06;;;;;;;26.80;16.40;;;19.00;93.70;;;;;;4937966;29;20057;-72
2022/09/06 03:09:31;;;;;;;28.30;16.20;;;19.10;93.70;;;;;;4937304;29;20388;-72
2022/09/06 03:11:57;;;;;;;25.20;15.47;;;19.00;93.70;;;;;;4954390;29;20054;-74
2022/09/06 03:14:23;;;;;;;35.80;15.40;;;19.00;93.70;;;;;;4955082;29;20357;-76
2022/09/06 03:16:48;;;;;;;23.63;15.50;;;19.00;93.70;;;;;;4955068;29;20057;-73
2022/09/06 03:19:14;;;;;;;33.10;15.83;;;19.00;93.80;;;;;;4954816;29;20054;-73
2022/09/06 03:21:40;;;;;;;26.17;15.43;;;19.00;93.80;;;;;;4954831;29;20371;-73
2022/09/06 03:24:05;;;;;;;26.73;15.10;;;19.00;93.80;;;;;;4937401;29;20035;-73
2022/09/06 03:26:31;;;;;;;27.20;15.97;;;19.00;93.90;;;;;;4938135;29;20149;-73
2022/09/06 03:28:57;;;;;;;31.13;15.87;;;19.00;93.90;;;;;;4937437;29;20046;-73
2022/09/06 03:31:22;;;;;;;24.93;15.23;;;19.00;93.90;;;;;;4954885;29;20062;-73
2022/09/06 03:33:48;;;;;;;28.50;15.03;;;19.00;93.80;;;;;;4937168;29;20078;-73
2022/09/06 03:36:14;;;;;;;25.67;15.20;;;19.00;93.90;;;;;;4954418;29;20051;-73
2022/09/06 03:38:40;;;;;;;29.60;15.68;;;18.90;94.00;;;;;;4937269;29;20042;-76
2022/09/06 03:41:06;;;;;;;24.53;14.97;;;19.00;94.00;;;;;;4937320;29;20077;-74
2022/09/06 03:43:31;;;;;;;26.00;16.00;;;18.90;94.10;;;;;;4937644;29;20050;-73
2022/09/06 03:45:57;;;;;;;28.57;16.23;;;19.00;94.40;;;;;;4954108;29;20047;-73
2022/09/06 03:48:25;;;;;;;27.47;15.47;;;19.00;94.10;;;;;;4954310;29;20134;-73
2022/09/06 03:50:53;;;;;;;26.45;15.40;;;19.00;94.10;;;;;;4954191;29;20047;-72
2022/09/06 03:53:19;;;;;;;29.55;15.45;;;19.00;94.10;;;;;;4954557;29;20416;-73
2022/09/06 03:55:50;;;;;;;25.83;15.98;;;19.00;94.20;;;;;;4937722;29;20051;-73
2022/09/06 03:58:18;;;;;;;27.65;15.93;;;19.00;94.20;;;;;;4955124;29;20040;-73
2022/09/06 04:00:44;;;;;;;27.02;15.57;;;19.00;94.30;;;;;;4937507;29;20443;-73
2022/09/06 04:03:10;;;;;;;27.77;16.05;;;19.00;94.20;;;;;;4954589;29;20145;-72
2022/09/06 04:05:36;;;;;;;28.05;16.45;;;19.00;94.10;;;;;;4954540;29;20047;-72
2022/09/06 04:08:02;;;;;;;27.57;16.77;;;19.00;94.20;;;;;;4937203;29;20361;-72
2022/09/06 04:10:28;;;;;;;32.13;17.13;;;18.90;94.30;;;;;;4936631;29;20051;-72
2022/09/06 04:12:54;;;;;;;32.23;17.67;;;18.90;94.30;;;;;;4937294;29;20053;-72
2022/09/06 04:15:19;;;;;;;29.40;17.90;;;18.90;94.30;;;;;;4954357;29;20410;-72
2022/09/06 04:17:46;;;;;;;29.37;17.30;;;18.90;94.40;;;;;;4937864;29;20070;-72
2022/09/06 04:20:13;;;;;;;32.67;18.38;;;18.90;94.50;;;;;;4937248;29;20122;-72
2022/09/06 04:22:39;;;;;;;28.40;17.33;;;18.90;94.50;;;;;;4954070;29;20443;-72
2022/09/06 04:25:05;;;;;;;28.13;17.80;;;18.90;94.60;;;;;;4937312;29;20051;-75
2022/09/06 04:27:31;;;;;;;33.03;17.95;;;18.90;95.00;;;;;;4954769;29;20047;-71
2022/09/06 04:29:57;;;;;;;31.50;17.57;;;18.80;95.10;;;;;;4954139;29;20070;-72
2022/09/06 04:32:23;;;;;;;31.10;17.93;;;18.80;95.80;;;;;;4936861;29;20396;-72
2022/09/06 04:34:49;;;;;;;33.77;17.77;;;18.80;95.70;;;;;;4937362;29;20069;-71
2022/09/06 04:37:18;;;;;;;37.40;19.20;;;18.70;95.70;;;;;;4936902;29;20058;-71
2022/09/06 04:39:45;;;;;;;34.00;18.65;;;18.70;97.30;;;;;;4936909;28;20047;-71
2022/09/06 04:42:11;;;;;;;34.00;19.60;;;18.60;96.60;;;;;;4921199;29;20476;-72
2022/09/06 04:44:36;;;;;;;37.80;19.73;;;18.60;96.60;;;;;;4937262;29;20124;-71
2022/09/06 04:47:11;;;;;;;39.57;20.07;;;18.50;96.70;;;;;;4953697;29;20142;-73
2022/09/06 04:49:37;;;;;;;40.55;21.05;;;18.50;98.60;;;;;;4954631;29;20093;-74
2022/09/06 04:52:03;;;;;;;35.50;19.57;;;18.50;99.40;;;;;;4954783;28;20051;-73
2022/09/06 04:54:28;;;;;;;31.60;19.77;;;18.50;98.50;;;;;;4957859;29;20047;-73
2022/09/06 04:56:54;;;;;;;38.67;20.67;;;18.50;98.30;;;;;;4940646;29;20047;-73
2022/09/06 04:59:20;;;;;;;38.20;20.97;;;18.50;98.20;;;;;;4942655;29;20050;-71
2022/09/06 05:01:45;;;;;;;35.00;20.80;;;18.50;98.30;;;;;;4944626;29;20109;-72
2022/09/06 05:04:11;;;;;;;44.33;22.13;;;18.50;98.20;;;;;;4961378;29;20135;-71
2022/09/06 05:06:38;;;;;;;38.40;21.53;;;18.50;98.90;;;;;;4928201;29;20051;-72
2022/09/06 05:09:04;;;;;;;37.72;22.60;;;18.40;98.80;;;;;;4943555;29;20059;-74
2022/09/06 05:11:30;;;;;;;45.17;22.00;;;18.40;98.90;;;;;;4943287;29;20082;-72
2022/09/06 05:13:56;;;;;;;42.17;22.07;;;18.40;99.10;;;;;;4942391;29;20290;-72
2022/09/06 05:16:22;;;;;;;41.73;23.33;;;18.30;99.90;;;;;;4957995;29;20054;-72
2022/09/06 05:18:47;;;;;;;38.63;22.17;;;18.30;99.90;;;;;;4940163;29;20082;-72
2022/09/06 05:21:13;;;;;;;41.33;23.50;;;18.20;99.90;;;;;;4956866;29;20368;-71
2022/09/06 05:23:39;;;;;;;43.87;24.63;;;18.20;99.90;;;;;;4957138;29;20145;-71
2022/09/06 05:26:05;;;;;;;42.80;23.93;;;18.20;99.90;;;;;;4940012;29;20058;-72
2022/09/06 05:28:31;;;;;;;53.43;24.67;;;18.10;99.90;;;;;;4957192;29;20059;-76
2022/09/06 05:31:11;;;;;;;45.70;25.43;;;18.00;99.90;;;;;;4957491;29;20043;-72
2022/09/06 05:33:37;;;;;;;46.83;24.30;;;17.80;99.90;;;;;;4956907;29;20054;-73
2022/09/06 05:36:04;;;;;;;42.88;24.88;;;17.70;99.90;;;;;;4956924;29;20047;-73
2022/09/06 05:38:30;;;;;;;44.30;24.88;;;17.70;99.90;;;;;;4940445;29;20058;-72
2022/09/06 05:40:56;;;;;;;41.17;23.40;;;17.60;99.90;;;;;;4958188;29;20040;-74
2022/09/06 05:43:21;;;;;;;44.00;23.87;;;17.60;99.90;;;;;;4940327;29;20091;-74
2022/09/06 05:45:47;;;;;;;44.70;23.33;;;17.60;99.90;;;;;;4957494;29;20047;-73
2022/09/06 05:48:13;;;;;;;47.23;23.53;;;17.50;99.90;;;;;;4939038;29;20464;-80
2022/09/06 05:50:38;;;;;;;46.70;23.63;;;17.60;99.90;;;;;;4956650;29;20053;-73
2022/09/06 05:53:04;;;;;;;44.70;23.53;;;17.60;99.90;;;;;;4957256;29;20059;-73
2022/09/06 05:55:30;;;;;;;46.03;25.53;;;17.70;99.90;;;;;;4956487;29;20055;-74
2022/09/06 05:57:55;;;;;;;43.03;24.00;;;17.70;99.90;;;;;;4956255;28;20047;-74
2022/09/06 06:00:21;;;;;;;50.57;26.77;;;17.80;99.90;;;;;;4939174;29;20043;-74
2022/09/06 06:02:48;;;;;;;41.90;24.97;;;17.90;99.90;;;;;;4956572;28;20047;-73
2022/09/06 06:05:14;;;;;;;45.53;24.85;;;17.90;99.90;;;;;;4955772;29;20499;-84
2022/09/06 06:07:40;;;;;;;45.97;26.38;;;18.00;99.90;;;;;;4938998;29;20047;-73
2022/09/06 06:10:06;;;;;;;49.00;25.67;;;18.10;99.90;;;;;;4956680;29;20071;-73
2022/09/06 06:12:32;;;;;;;52.03;26.10;;;18.10;99.90;;;;;;4939011;29;20051;-75
2022/09/06 06:14:58;;;;;;;46.60;25.57;;;18.20;99.90;;;;;;4956060;29;20289;-75
2022/09/06 06:17:24;;;;;;;48.40;27.17;;;18.20;99.90;;;;;;4923538;29;20046;-73
2022/09/06 06:19:49;;;;;;;48.47;25.70;;;18.30;99.90;;;;;;4955866;29;20435;-73
2022/09/06 06:22:15;;;;;;;45.03;26.03;;;18.30;99.90;;;;;;4938727;29;20079;-77
2022/09/06 06:24:41;;;;;;;48.60;26.73;;;18.30;99.90;;;;;;4938709;29;20055;-74
2022/09/06 06:27:06;;;;;;;51.70;26.63;;;18.30;99.90;;;;;;4938623;29;20074;-75
2022/09/06 06:29:32;;;;;;;49.43;27.80;;;18.30;99.90;;;;;;4955981;29;20047;-74
2022/09/06 06:31:58;;;;;;;53.67;27.43;;;18.40;99.90;;;;;;4938827;29;20054;-73
2022/09/06 06:34:24;;;;;;;47.77;26.47;;;18.40;99.90;;;;;;4955765;29;20423;-73
2022/09/06 06:36:49;;;;;;;53.07;27.50;;;18.50;99.90;;;;;;4922647;29;20043;-74
2022/09/06 06:39:15;;;;;;;48.40;28.23;;;18.50;99.90;;;;;;4922541;29;20179;-74
2022/09/06 06:41:41;;;;;;;49.37;27.97;;;18.50;99.90;;;;;;4955950;29;20052;-74
2022/09/06 06:44:06;;;;;;;49.13;27.90;;;18.60;99.90;;;;;;4955377;28;20511;-72
2022/09/06 06:46:35;;;;;;;61.43;28.13;;;18.70;99.90;;;;;;4938930;29;20249;-73
2022/09/06 06:49:00;;;;;;;55.42;28.65;;;18.70;99.90;;;;;;4955531;29;20055;-73
2022/09/06 06:51:29;;;;;;;51.57;28.33;;;18.80;99.90;;;;;;4955674;29;20452;-73
2022/09/06 06:53:58;;;;;;;48.28;28.35;;;18.90;99.90;;;;;;4955264;29;20062;-73
2022/09/06 06:56:30;;;;;;;52.45;28.77;;;19.00;99.90;;;;;;4938869;29;20101;-76
2022/09/06 06:58:59;;;;;;;55.53;28.85;;;19.00;99.90;;;;;;4938052;29;20055;-74
2022/09/06 07:01:26;;;;;;;54.58;28.55;;;19.00;99.90;;;;;;4955422;29;20154;-78
2022/09/06 07:03:53;;;;;;;57.80;29.73;;;19.10;99.90;;;;;;4955218;29;20087;-73
2022/09/06 07:06:19;;;;;;;52.70;27.92;;;19.10;99.90;;;;;;4955082;29;20085;-84
2022/09/06 07:08:46;;;;;;;56.53;29.92;;;19.20;99.90;;;;;;4955427;29;20133;-72
2022/09/06 07:11:14;;;;;;;53.88;31.83;;;19.30;99.90;;;;;;4954812;28;20399;-73
2022/09/06 07:13:39;;;;;;;59.97;33.53;;;19.30;99.90;;;;;;4938176;29;20067;-74
2022/09/06 07:16:18;;;;;;;58.50;31.60;;;19.40;99.90;;;;;;4937877;29;20147;-75
2022/09/06 07:18:44;;;;;;;56.67;31.25;;;19.50;99.90;;;;;;4955359;28;20047;-73
2022/09/06 07:21:11;;;;;;;56.50;30.73;;;19.60;99.90;;;;;;4937881;29;20360;-74
2022/09/06 07:23:37;;;;;;;57.25;29.92;;;19.60;99.90;;;;;;4954822;28;20506;-73
2022/09/06 07:26:03;;;;;;;55.60;29.83;;;19.70;99.90;;;;;;4923302;29;20093;-74
2022/09/06 07:28:30;;;;;;;51.47;29.90;;;19.60;99.90;;;;;;4955286;29;20137;-74
2022/09/06 07:30:56;;;;;;;48.42;28.08;;;19.60;99.90;;;;;;4955083;29;20524;-74
2022/09/06 07:33:21;;;;;;;48.90;27.60;;;19.50;99.90;;;;;;4955233;29;20075;-73
2022/09/06 07:35:58;;;;;;;54.50;28.20;;;19.50;99.90;;;;;;4937995;29;20059;-72
2022/09/06 07:38:25;;;;;;;45.50;27.13;;;19.40;99.90;;;;;;4954494;29;20138;-73
2022/09/06 07:40:57;;;;;;;47.58;27.23;;;19.30;99.90;;;;;;4937631;29;20558;-73
2022/09/06 07:43:24;;;;;;;48.70;27.42;;;19.30;99.90;;;;;;4955023;29;20051;-73
2022/09/06 07:46:02;;;;;;;53.42;28.35;;;19.40;99.90;;;;;;4906855;29;20063;-73
2022/09/06 07:48:32;;;;;;;47.70;27.80;;;19.40;99.90;;;;;;4954599;29;20055;-73
2022/09/06 07:51:07;;;;;;;50.08;29.02;;;19.50;99.90;;;;;;4954196;29;20385;-73
2022/09/06 07:53:35;;;;;;;51.13;28.20;;;19.60;99.90;;;;;;4955052;29;20050;-74
2022/09/06 07:56:02;;;;;;;46.85;27.02;;;19.70;99.90;;;;;;4955068;28;20113;-74
2022/09/06 07:58:29;;;;;;;55.72;27.85;;;19.80;99.90;;;;;;4956175;29;20546;-75
2022/09/06 08:01:29;;;;;;;47.70;27.23;;;19.90;99.90;;;;;;4937898;29;20051;-72
2022/09/06 08:03:57;;;;;;;53.08;27.95;;;20.10;99.90;;;;;;4937987;29;20043;-74
2022/09/06 08:06:24;;;;;;;51.75;28.48;;;20.20;99.90;;;;;;4938191;29;20054;-74
2022/09/06 08:08:51;;;;;;;54.28;28.85;;;20.30;99.90;;;;;;4963193;28;20047;-74
2022/09/06 08:11:19;;;;;;;51.22;28.20;;;20.20;99.90;;;;;;4968590;29;20061;-73
2022/09/06 08:13:50;;;;;;;50.70;27.10;;;20.20;99.90;;;;;;4958894;28;20099;-74
2022/09/06 08:16:16;;;;;;;48.35;27.23;;;20.40;99.90;;;;;;4957585;28;20061;-74
2022/09/06 08:18:42;;;;;;;45.43;26.03;;;20.40;99.90;;;;;;4939327;29;20055;-75
2022/09/06 08:21:12;;;;;;;48.20;27.10;;;20.50;99.90;;;;;;4955766;28;20043;-80
2022/09/06 08:23:45;;;;;;;49.40;27.20;;;20.60;99.90;;;;;;4940537;29;20531;-74
2022/09/06 08:26:11;;;;;;;48.20;27.58;;;20.60;99.90;;;;;;4956968;28;20463;-74
2022/09/06 08:28:37;;;;;;;47.30;26.07;;;20.70;99.90;;;;;;4959680;29;20098;-72
2022/09/06 08:31:15;;;;;;;50.33;26.20;;;20.90;99.90;;;;;;4943396;29;20043;-74
2022/09/06 08:33:42;;;;;;;48.45;27.77;;;20.90;99.90;;;;;;4959414;29;20631;-73
2022/09/06 08:36:09;;;;;;;48.67;27.52;;;21.00;99.90;;;;;;4961029;29;20051;-78
2022/09/06 08:38:35;;;;;;;43.80;26.90;;;21.10;99.90;;;;;;4958952;29;20047;-74
2022/09/06 08:41:13;;;;;;;50.33;27.35;;;21.20;99.90;;;;;;4958860;29;20086;-75
2022/09/06 08:44:06;;;;;;;52.78;27.77;;;21.20;99.90;;;;;;4942467;29;20142;-74
2022/09/06 08:46:55;;;;;;;53.28;28.67;;;21.30;99.90;;;;;;4959002;29;20051;-72
2022/09/06 08:49:22;;;;;;;55.25;29.10;;;21.30;99.90;;;;;;4960011;29;20055;-74
2022/09/06 08:51:47;;;;;;;56.35;28.92;;;21.40;99.90;;;;;;4941894;29;20055;-74
2022/09/06 08:54:28;;;;;;;51.87;29.53;;;21.50;99.90;;;;;;4959291;29;20134;-75
2022/09/06 08:57:26;;;;;;;52.97;29.15;;;21.40;99.90;;;;;;4926149;29;20063;-73
2022/09/06 08:59:58;;;;;;;59.67;29.52;;;21.50;99.90;;;;;;4933676;29;20059;-74
2022/09/06 09:02:24;;;;;;;50.13;27.98;;;21.60;99.90;;;;;;4941108;29;20388;-75
2022/09/06 09:04:59;;;;;;;46.53;25.13;;;21.70;99.90;;;;;;4958877;29;20055;-74
2022/09/06 09:08:02;;;;;;;52.13;26.85;;;21.80;99.90;;;;;;4958201;29;20134;-74
2022/09/06 09:10:29;;;;;;;52.10;27.60;;;21.90;99.90;;;;;;4957613;29;20472;-75
2022/09/06 09:12:56;;;;;;;47.30;27.13;;;22.00;99.90;;;;;;4957054;29;20480;-73
2022/09/06 09:15:22;;;;;;;45.08;24.83;;;22.00;99.90;;;;;;4957977;28;20129;-73
2022/09/06 09:17:50;;;;;;;45.95;25.55;;;22.10;99.90;;;;;;4926650;29;20134;-76
2022/09/06 09:20:16;;;;;;;48.78;25.50;;;22.30;99.90;;;;;;4961036;29;20054;-73
2022/09/06 09:22:43;;;;;;;46.20;25.50;;;22.30;99.90;;;;;;4959794;29;20345;-73
2022/09/06 09:25:21;;;;;;;46.97;26.55;;;22.50;99.90;;;;;;4957882;29;20393;-74
2022/09/06 09:27:56;;;;;;;48.05;27.27;;;22.50;99.90;;;;;;4957725;29;20043;-72
2022/09/06 09:30:23;;;;;;;45.25;23.65;;;22.60;99.90;;;;;;4957061;28;20047;-74
2022/09/06 09:32:48;;;;;;;;;;;22.70;99.90;;;;;;4909414;29;20094;-74
2022/09/06 09:35:34;;;;;;;40.95;22.90;;;22.80;99.90;;;;;;4940364;29;19929;-77
2022/09/06 09:38:12;;;;;;;44.65;22.73;;;23.00;99.90;;;;;;4939879;29;20575;-74
2022/09/06 09:40:47;;;;;;;43.22;20.92;;;23.10;99.90;;;;;;4957061;29;20464;-73
2022/09/06 09:43:15;;;;;;;37.42;19.25;;;23.10;99.90;;;;;;4956880;29;20059;-72
2022/09/06 09:45:42;;;;;;;28.67;15.50;;;23.30;99.90;;;;;;4957171;29;20074;-75
2022/09/06 09:48:27;;;;;;;25.60;12.85;;;23.40;99.90;;;;;;4939807;29;20469;-75
2022/09/06 09:50:55;;;;;;;23.73;13.27;;;23.50;99.90;;;;;;4958721;28;20047;-74
2022/09/06 09:53:22;;;;;;;27.98;13.68;;;23.60;99.90;;;;;;4941446;29;20143;-73
2022/09/06 09:55:56;;;;;;;27.88;12.77;;;23.60;99.90;;;;;;4939429;29;20061;-76
2022/09/06 09:58:40;;;;;;;26.85;15.02;;;23.70;99.90;;;;;;4956831;29;20054;-76
2022/09/06 10:01:13;;;;;;;28.70;15.18;;;23.90;98.70;;;;;;4956600;29;20075;-74
2022/09/06 10:03:39;;;;;;;27.55;14.07;;;24.00;98.60;;;;;;4940470;29;20055;-73
2022/09/06 10:06:09;;;;;;;30.85;15.13;;;24.00;98.90;;;;;;4956395;29;20494;-74
2022/09/06 10:08:41;;;;;;;28.75;15.75;;;24.00;98.90;;;;;;4956647;28;20047;-72
2022/09/06 10:11:11;;;;;;;23.63;13.77;;;24.10;98.20;;;;;;4956501;28;20055;-71
2022/09/06 10:13:36;;;;;;;27.38;16.00;;;24.10;98.60;;;;;;4939318;29;20051;-72
2022/09/06 10:16:02;;;;;;;34.70;19.17;;;24.20;98.70;;;;;;4926583;29;20106;-75
2022/09/06 10:18:40;;;;;;;35.80;19.53;;;24.30;97.90;;;;;;4960476;29;20287;-73
2022/09/06 10:21:10;;;;;;;34.90;19.23;;;24.30;97.70;;;;;;4959842;29;20047;-75
2022/09/06 10:23:41;;;;;;;35.63;16.42;;;24.30;97.70;;;;;;4960445;29;20043;-73
2022/09/06 10:26:25;;;;;;;30.98;18.05;;;24.30;98.00;;;;;;4943583;29;20468;-74
2022/09/06 10:29:03;;;;;;;32.35;17.02;;;24.30;98.10;;;;;;4944575;29;20066;-75
2022/09/06 10:31:55;;;;;;;29.27;15.93;;;24.50;97.30;;;;;;4962984;29;20039;-74
2022/09/06 10:34:43;;;;;;;27.98;16.35;;;24.50;97.30;;;;;;4927398;29;20089;-74
2022/09/06 10:37:15;;;;;;;30.92;17.65;;;24.60;97.20;;;;;;4957520;29;20058;-74
2022/09/06 10:40:07;;;;;;;28.95;17.38;;;24.70;96.90;;;;;;4944497;29;20117;-73
2022/09/06 10:42:56;;;;;;;30.55;17.02;;;24.80;97.30;;;;;;4968092;29;20044;-72
2022/09/06 10:45:48;;;;;;;32.00;17.92;;;24.80;96.40;;;;;;4967579;29;20131;-74
2022/09/06 10:48:14;;;;;;;32.05;17.85;;;24.80;96.30;;;;;;4929789;29;20142;-73
2022/09/06 10:51:06;;;;;;;40.20;19.37;;;24.80;96.40;;;;;;4960521;28;20121;-71
2022/09/06 10:53:46;;;;;;;33.60;17.52;;;24.90;96.10;;;;;;4959951;29;20082;-76
2022/09/06 10:56:15;;;;;;;26.63;15.18;;;25.00;96.00;;;;;;4938842;28;20051;-74
2022/09/06 10:58:50;;;;;;;32.63;17.35;;;25.10;95.80;;;;;;4955717;29;20523;-72
2022/09/06 11:01:43;;;;;;;36.83;19.60;;;25.10;95.70;;;;;;4938656;29;20050;-73
2022/09/06 11:04:18;;;;;;;35.97;20.95;;;25.20;95.20;;;;;;4962115;29;20047;-75
2022/09/06 11:06:51;;;;;;;32.78;17.45;;;25.10;95.30;;;;;;4974454;28;20051;-83
2022/09/06 11:09:25;;;;;;;29.33;14.68;;;25.00;95.30;;;;;;4966195;29;20071;-75
2022/09/06 11:12:00;;;;;;;35.28;16.33;;;25.20;95.30;;;;;;4959043;28;20062;-74
2022/09/06 11:14:27;;;;;;;26.55;15.38;;;25.30;94.90;;;;;;4957051;29;20051;-74
2022/09/06 11:17:00;;;;;;;;;;;25.40;94.90;;;;;;4957130;29;20098;-73
2022/09/06 11:19:36;;;;;;;23.38;12.60;;;25.50;93.60;;;;;;4955412;29;20301;-73
2022/09/06 11:22:07;;;;;;;24.77;13.82;;;25.60;92.90;;;;;;4955589;29;20054;-74
2022/09/06 11:24:47;;;;;;;25.38;13.82;;;25.50;93.30;;;;;;4956003;29;20101;-72
2022/09/06 11:27:38;;;;;;;25.77;12.43;;;25.50;93.10;;;;;;4955224;29;20047;-74
2022/09/06 11:30:06;;;;;;;15.15;9.45;;;25.60;92.60;;;;;;4918871;29;20059;-73
2022/09/06 11:32:43;;;;;;;21.52;10.10;;;25.60;92.00;;;;;;4942555;29;20051;-75
2022/09/06 11:35:39;;;;;;;14.43;7.13;;;25.70;92.00;;;;;;4941323;29;20499;-75
2022/09/06 11:38:28;;;;;;;20.45;9.45;;;25.80;90.80;;;;;;4957783;29;20472;-74
2022/09/06 11:41:01;;;;;;;18.48;8.90;;;25.90;90.70;;;;;;4957625;29;20367;-71
2022/09/06 11:43:49;;;;;;;24.05;11.48;;;26.00;91.10;;;;;;4956927;29;20086;-74
2022/09/06 11:46:32;;;;;;;18.13;10.70;;;26.20;90.70;;;;;;4956215;28;20415;-76
2022/09/06 11:49:26;;;;;;;18.77;9.75;;;26.20;90.20;;;;;;4955553;29;20388;-71
2022/09/06 11:51:53;;;;;;;20.25;10.38;;;26.20;90.50;;;;;;4955663;29;20423;-76
2022/09/06 11:54:20;;;;;;;24.70;11.43;;;26.30;90.00;;;;;;4955266;29;20051;-74
2022/09/06 11:56:46;;;;;;;18.80;10.20;;;26.30;89.40;;;;;;4955116;29;20051;-72
2022/09/06 11:59:26;;;;;;;17.33;10.83;;;26.20;90.60;;;;;;4955070;29;20101;-73
2022/09/06 12:01:55;;;;;;;15.68;9.75;;;26.30;90.60;;;;;;4940017;29;20090;-75
2022/09/06 12:04:22;;;;;;;18.60;10.30;;;26.40;90.80;;;;;;4941428;29;20084;-72
2022/09/06 12:07:08;;;;;;;20.88;10.85;;;26.40;90.00;;;;;;4942484;29;20050;-71
2022/09/06 12:09:41;;;;;;;17.85;9.30;;;26.30;90.50;;;;;;4958818;29;20396;-71
2022/09/06 12:12:08;;;;;;;15.23;8.63;;;26.40;90.50;;;;;;4958464;29;20487;-72
2022/09/06 12:14:40;;;;;;;15.77;8.13;;;26.50;90.00;;;;;;4958457;29;20051;-73
2022/09/06 12:17:06;;;;;;;16.40;9.15;;;26.60;88.20;;;;;;4941437;29;20102;-73
2022/09/06 12:19:45;;;;;;;15.25;8.75;;;26.70;88.90;;;;;;4941882;29;20043;-75
2022/09/06 12:22:35;;;;;;;14.18;7.93;;;26.70;89.20;;;;;;4958715;29;20102;-74
2022/09/06 12:25:19;;;;;;;14.55;8.25;;;26.80;89.60;;;;;;4958284;29;20098;-73
2022/09/06 12:27:55;;;;;;;13.68;7.07;;;27.00;87.80;;;;;;4959038;29;20055;-72
2022/09/06 12:30:36;;;;;;;14.60;7.87;;;27.10;86.70;;;;;;4958509;29;20133;-73
2022/09/06 12:33:28;;;;;;;13.23;7.30;;;27.10;85.60;;;;;;4941012;29;20051;-74
2022/09/06 12:36:15;;;;;;;12.55;6.35;;;27.00;83.70;;;;;;4957764;29;20457;-76
2022/09/06 12:38:53;;;;;;;10.70;5.93;;;26.90;84.30;;;;;;4958472;29;20527;-72
2022/09/06 12:41:20;;;;;;;11.88;5.40;;;27.00;84.40;;;;;;4940975;29;20055;-72
2022/09/06 12:43:47;;;;;;;11.07;5.60;;;27.30;82.60;;;;;;4957749;29;20082;-70
2022/09/06 12:46:14;;;;;;;10.98;6.05;;;27.40;82.20;;;;;;4961583;29;20051;-75
2022/09/06 12:48:43;;;;;;;13.30;5.95;;;27.30;82.70;;;;;;4942820;29;20051;-71